sensor_id;sensor_type;location;lat;lon;timestamp;temperature;humidity
27200;DHT22;14714;48.106;11.546;2023-05-19T00:00:01;9.70;99.90
27200;DHT22;14714;48.106;11.546;2023-05-19T00:02:28;9.70;99.90
27200;DHT22;14714;48.106;11.546;2023-05-19T00:05:00;9.70;99.90
27200;DHT22;14714;48.106;11.546;2023-05-19T00:07:30;9.70;99.90
27200;DHT22;14714;48.106;11.546;2023-05-19T00:09:57;9.70;99.90
27200;DHT22;14714;48.106;11.546;2023-05-19T00:12:24;9.60;99.90
27200;DHT22;14714;48.106;11.546;2023-05-19T00:14:51;9.60;99.90
27200;DHT22;14714;48.106;11.546;2023-05-19T00:17:18;9.60;99.90
27200;DHT22;14714;48.106;11.546;2023-05-19T00:19:45;9.60;99.90
27200;DHT22;14714;48.106;11.546;2023-05-19T00:22:13;9.60;99.90
27200;DHT22;14714;48.106;11.546;2023-05-19T00:24:40;9.60;99.90
27200;DHT22;14714;48.106;11.546;2023-05-19T00:27:07;9.60;99.90
27200;DHT22;14714;48.106;11.546;2023-05-19T00:29:33;9.50;99.90
27200;DHT22;14714;48.106;11.546;2023-05-19T00:32:01;9.60;99.90
27200;DHT22;14714;48.106;11.546;2023-05-19T00:34:27;9.50;99.90
27200;DHT22;14714;48.106;11.546;2023-05-19T00:36:54;9.50;99.90
27200;DHT22;14714;48.106;11.546;2023-05-19T00:39:21;9.50;99.90
27200;DHT22;14714;48.106;11.546;2023-05-19T00:41:48;9.50;99.90
27200;DHT22;14714;48.106;11.546;2023-05-19T00:44:15;9.50;99.90
27200;DHT22;14714;48.106;11.546;2023-05-19T00:46:41;9.50;99.90
27200;DHT22;14714;48.106;11.546;2023-05-19T00:49:08;9.50;99.90
27200;DHT22;14714;48.106;11.546;2023-05-19T00:51:35;9.50;99.90
27200;DHT22;14714;48.106;11.546;2023-05-19T00:54:03;9.50;99.90
27200;DHT22;14714;48.106;11.546;2023-05-19T00:56:30;9.60;99.90
27200;DHT22;14714;48.106;11.546;2023-05-19T00:58:57;9.50;99.90
27200;DHT22;14714;48.106;11.546;2023-05-19T01:01:24;9.60;99.90
27200;DHT22;14714;48.106;11.546;2023-05-19T01:03:52;9.50;99.90
27200;DHT22;14714;48.106;11.546;2023-05-19T01:06:22;9.50;99.90
27200;DHT22;14714;48.106;11.546;2023-05-19T01:08:50;9.50;99.90
27200;DHT22;14714;48.106;11.546;2023-05-19T01:11:17;9.50;99.90
27200;DHT22;14714;48.106;11.546;2023-05-19T01:13:44;9.50;99.90
27200;DHT22;14714;48.106;11.546;2023-05-19T01:16:21;9.60;99.90
27200;DHT22;14714;48.106;11.546;2023-05-19T01:30:54;9.60;99.90
27200;DHT22;14714;48.106;11.546;2023-05-19T01:33:22;9.60;99.90
27200;DHT22;14714;48.106;11.546;2023-05-19T01:35:50;9.60;99.90
27200;DHT22;14714;48.106;11.546;2023-05-19T01:38:19;9.60;99.90
27200;DHT22;14714;48.106;11.546;2023-05-19T01:40:48;9.50;99.90
27200;DHT22;14714;48.106;11.546;2023-05-19T01:43:18;9.50;99.90
27200;DHT22;14714;48.106;11.546;2023-05-19T01:45:46;9.60;99.90
27200;DHT22;14714;48.106;11.546;2023-05-19T01:48:14;9.60;99.90
27200;DHT22;14714;48.106;11.546;2023-05-19T01:50:41;9.60;99.90
27200;DHT22;14714;48.106;11.546;2023-05-19T01:53:09;9.60;99.90
27200;DHT22;14714;48.106;11.546;2023-05-19T01:55:46;9.60;99.90
27200;DHT22;14714;48.106;11.546;2023-05-19T01:58:21;9.60;99.90
27200;DHT22;14714;48.106;11.546;2023-05-19T02:07:04;9.50;99.90
27200;DHT22;14714;48.106;11.546;2023-05-19T02:09:44;9.50;99.90
27200;DHT22;14714;48.106;11.546;2023-05-19T02:12:34;9.50;99.90
27200;DHT22;14714;48.106;11.546;2023-05-19T02:15:12;9.50;99.90
27200;DHT22;14714;48.106;11.546;2023-05-19T02:17:44;9.50;99.90
27200;DHT22;14714;48.106;11.546;2023-05-19T02:20:17;9.50;99.90
27200;DHT22;14714;48.106;11.546;2023-05-19T02:22:44;9.50;99.90
27200;DHT22;14714;48.106;11.546;2023-05-19T02:25:11;9.50;99.90
27200;DHT22;14714;48.106;11.546;2023-05-19T02:27:38;9.50;99.90
27200;DHT22;14714;48.106;11.546;2023-05-19T02:30:06;9.50;99.90
27200;DHT22;14714;48.106;11.546;2023-05-19T02:32:34;9.40;99.90
27200;DHT22;14714;48.106;11.546;2023-05-19T02:35:02;9.40;99.90
27200;DHT22;14714;48.106;11.546;2023-05-19T02:37:29;9.40;99.90
27200;DHT22;14714;48.106;11.546;2023-05-19T02:39:56;9.40;99.90
27200;DHT22;14714;48.106;11.546;2023-05-19T02:42:23;9.40;99.90
27200;DHT22;14714;48.106;11.546;2023-05-19T02:44:52;9.40;99.90
27200;DHT22;14714;48.106;11.546;2023-05-19T02:47:20;9.50;99.90
27200;DHT22;14714;48.106;11.546;2023-05-19T02:49:46;9.40;99.90
27200;DHT22;14714;48.106;11.546;2023-05-19T02:52:13;9.40;99.90
27200;DHT22;14714;48.106;11.546;2023-05-19T02:54:40;9.40;99.90
27200;DHT22;14714;48.106;11.546;2023-05-19T02:57:07;9.40;99.90
27200;DHT22;14714;48.106;11.546;2023-05-19T02:59:33;9.40;99.90
27200;DHT22;14714;48.106;11.546;2023-05-19T03:02:01;9.30;99.90
27200;DHT22;14714;48.106;11.546;2023-05-19T03:04:28;9.30;99.90
27200;DHT22;14714;48.106;11.546;2023-05-19T03:06:55;9.30;99.90
27200;DHT22;14714;48.106;11.546;2023-05-19T03:09:23;9.20;99.90
27200;DHT22;14714;48.106;11.546;2023-05-19T03:11:50;9.20;99.90
27200;DHT22;14714;48.106;11.546;2023-05-19T03:14:16;9.20;99.90
27200;DHT22;14714;48.106;11.546;2023-05-19T03:16:44;9.20;99.90
27200;DHT22;14714;48.106;11.546;2023-05-19T03:19:11;9.20;99.90
27200;DHT22;14714;48.106;11.546;2023-05-19T03:21:38;9.20;99.90
27200;DHT22;14714;48.106;11.546;2023-05-19T03:24:05;9.10;99.90
27200;DHT22;14714;48.106;11.546;2023-05-19T03:26:32;9.20;99.90
27200;DHT22;14714;48.106;11.546;2023-05-19T03:28:59;9.20;99.90
27200;DHT22;14714;48.106;11.546;2023-05-19T03:31:26;9.10;99.90
27200;DHT22;14714;48.106;11.546;2023-05-19T03:33:53;9.10;99.90
27200;DHT22;14714;48.106;11.546;2023-05-19T03:36:20;9.10;99.90
27200;DHT22;14714;48.106;11.546;2023-05-19T03:38:47;9.10;99.90
27200;DHT22;14714;48.106;11.546;2023-05-19T03:41:14;9.10;99.90
27200;DHT22;14714;48.106;11.546;2023-05-19T03:43:41;9.10;99.90
27200;DHT22;14714;48.106;11.546;2023-05-19T03:46:08;9.00;99.90
27200;DHT22;14714;48.106;11.546;2023-05-19T03:48:35;9.10;99.90
27200;DHT22;14714;48.106;11.546;2023-05-19T03:51:02;9.10;99.90
27200;DHT22;14714;48.106;11.546;2023-05-19T03:53:29;9.10;99.90
27200;DHT22;14714;48.106;11.546;2023-05-19T03:55:56;9.10;99.90
27200;DHT22;14714;48.106;11.546;2023-05-19T03:58:23;9.10;99.90
27200;DHT22;14714;48.106;11.546;2023-05-19T04:00:50;9.10;99.90
27200;DHT22;14714;48.106;11.546;2023-05-19T04:03:17;9.10;99.90
27200;DHT22;14714;48.106;11.546;2023-05-19T04:05:44;9.20;99.90
27200;DHT22;14714;48.106;11.546;2023-05-19T04:08:11;9.20;99.90
27200;DHT22;14714;48.106;11.546;2023-05-19T04:10:37;9.20;99.90
27200;DHT22;14714;48.106;11.546;2023-05-19T04:13:04;9.20;99.90
27200;DHT22;14714;48.106;11.546;2023-05-19T04:15:31;9.30;99.90
27200;DHT22;14714;48.106;11.546;2023-05-19T04:17:58;9.30;99.90
27200;DHT22;14714;48.106;11.546;2023-05-19T04:20:25;9.30;99.90
27200;DHT22;14714;48.106;11.546;2023-05-19T04:22:51;9.40;99.90
27200;DHT22;14714;48.106;11.546;2023-05-19T04:25:18;9.40;99.90
27200;DHT22;14714;48.106;11.546;2023-05-19T04:27:45;9.40;99.90
27200;DHT22;14714;48.106;11.546;2023-05-19T04:30:13;9.40;99.90
27200;DHT22;14714;48.106;11.546;2023-05-19T04:32:48;9.50;99.90
27200;DHT22;14714;48.106;11.546;2023-05-19T04:35:16;9.50;99.90
27200;DHT22;14714;48.106;11.546;2023-05-19T04:37:43;9.50;99.90
27200;DHT22;14714;48.106;11.546;2023-05-19T04:40:14;9.50;99.90
27200;DHT22;14714;48.106;11.546;2023-05-19T04:42:41;9.60;99.90
27200;DHT22;14714;48.106;11.546;2023-05-19T04:45:09;9.60;99.90
27200;DHT22;14714;48.106;11.546;2023-05-19T04:47:38;9.70;99.90
27200;DHT22;14714;48.106;11.546;2023-05-19T04:50:05;9.80;99.90
27200;DHT22;14714;48.106;11.546;2023-05-19T04:52:33;9.80;99.90
27200;DHT22;14714;48.106;11.546;2023-05-19T04:54:59;9.80;99.90
27200;DHT22;14714;48.106;11.546;2023-05-19T04:57:26;9.90;99.90
27200;DHT22;14714;48.106;11.546;2023-05-19T04:59:53;9.90;99.90
27200;DHT22;14714;48.106;11.546;2023-05-19T05:02:25;10.00;99.90
27200;DHT22;14714;48.106;11.546;2023-05-19T05:04:55;10.00;99.90
27200;DHT22;14714;48.106;11.546;2023-05-19T05:07:22;10.10;99.90
27200;DHT22;14714;48.106;11.546;2023-05-19T05:09:49;10.20;99.90
27200;DHT22;14714;48.106;11.546;2023-05-19T05:12:17;10.40;99.90
27200;DHT22;14714;48.106;11.546;2023-05-19T05:14:44;10.60;99.90
27200;DHT22;14714;48.106;11.546;2023-05-19T05:17:11;10.90;99.90
27200;DHT22;14714;48.106;11.546;2023-05-19T05:19:39;11.20;99.90
27200;DHT22;14714;48.106;11.546;2023-05-19T05:22:06;11.30;99.90
27200;DHT22;14714;48.106;11.546;2023-05-19T05:24:33;11.50;99.90
27200;DHT22;14714;48.106;11.546;2023-05-19T05:27:00;11.80;99.90
27200;DHT22;14714;48.106;11.546;2023-05-19T05:29:27;12.10;99.90
27200;DHT22;14714;48.106;11.546;2023-05-19T05:31:54;12.50;99.90
27200;DHT22;14714;48.106;11.546;2023-05-19T05:34:21;13.00;99.90
27200;DHT22;14714;48.106;11.546;2023-05-19T05:36:48;13.50;99.90
27200;DHT22;14714;48.106;11.546;2023-05-19T05:39:15;13.90;99.90
27200;DHT22;14714;48.106;11.546;2023-05-19T05:41:42;14.30;99.90
27200;DHT22;14714;48.106;11.546;2023-05-19T05:44:08;15.00;99.90
27200;DHT22;14714;48.106;11.546;2023-05-19T05:46:35;15.50;99.90
27200;DHT22;14714;48.106;11.546;2023-05-19T05:49:02;15.70;99.90
27200;DHT22;14714;48.106;11.546;2023-05-19T05:51:29;16.10;99.90
27200;DHT22;14714;48.106;11.546;2023-05-19T05:53:59;16.70;99.90
27200;DHT22;14714;48.106;11.546;2023-05-19T05:56:26;17.60;99.90
27200;DHT22;14714;48.106;11.546;2023-05-19T05:58:53;18.60;99.90
27200;DHT22;14714;48.106;11.546;2023-05-19T06:01:20;19.60;96.20
27200;DHT22;14714;48.106;11.546;2023-05-19T06:03:47;20.50;91.90
27200;DHT22;14714;48.106;11.546;2023-05-19T06:06:14;21.40;85.20
27200;DHT22;14714;48.106;11.546;2023-05-19T06:08:41;21.90;80.20
27200;DHT22;14714;48.106;11.546;2023-05-19T06:11:08;22.30;75.10
27200;DHT22;14714;48.106;11.546;2023-05-19T06:13:35;22.60;70.00
27200;DHT22;14714;48.106;11.546;2023-05-19T06:16:02;22.30;67.40
27200;DHT22;14714;48.106;11.546;2023-05-19T06:18:29;21.10;69.50
27200;DHT22;14714;48.106;11.546;2023-05-19T06:20:56;19.90;73.90
27200;DHT22;14714;48.106;11.546;2023-05-19T06:23:23;19.50;76.30
27200;DHT22;14714;48.106;11.546;2023-05-19T06:25:50;19.20;76.40
27200;DHT22;14714;48.106;11.546;2023-05-19T06:28:17;18.70;78.80
27200;DHT22;14714;48.106;11.546;2023-05-19T06:30:44;18.40;80.70
27200;DHT22;14714;48.106;11.546;2023-05-19T06:33:11;18.90;80.40
27200;DHT22;14714;48.106;11.546;2023-05-19T06:35:38;19.40;78.20
27200;DHT22;14714;48.106;11.546;2023-05-19T06:38:05;19.50;76.00
27200;DHT22;14714;48.106;11.546;2023-05-19T06:40:31;19.30;76.10
27200;DHT22;14714;48.106;11.546;2023-05-19T06:42:59;18.90;77.80
27200;DHT22;14714;48.106;11.546;2023-05-19T06:45:26;18.60;80.30
27200;DHT22;14714;48.106;11.546;2023-05-19T06:47:52;18.70;77.90
27200;DHT22;14714;48.106;11.546;2023-05-19T06:50:20;18.50;79.70
27200;DHT22;14714;48.106;11.546;2023-05-19T06:52:47;18.40;79.90
27200;DHT22;14714;48.106;11.546;2023-05-19T06:55:14;18.70;80.40
27200;DHT22;14714;48.106;11.546;2023-05-19T06:57:42;19.50;77.00
27200;DHT22;14714;48.106;11.546;2023-05-19T07:00:09;20.30;73.30
27200;DHT22;14714;48.106;11.546;2023-05-19T07:02:40;20.70;70.30
27200;DHT22;14714;48.106;11.546;2023-05-19T07:05:07;21.40;69.40
27200;DHT22;14714;48.106;11.546;2023-05-19T07:07:34;22.20;65.30
27200;DHT22;14714;48.106;11.546;2023-05-19T07:10:01;22.50;61.70
27200;DHT22;14714;48.106;11.546;2023-05-19T07:12:28;22.10;62.10
27200;DHT22;14714;48.106;11.546;2023-05-19T07:14:55;21.80;62.80
27200;DHT22;14714;48.106;11.546;2023-05-19T07:17:21;21.20;64.20
27200;DHT22;14714;48.106;11.546;2023-05-19T07:19:48;20.50;66.20
27200;DHT22;14714;48.106;11.546;2023-05-19T07:22:15;19.90;68.00
27200;DHT22;14714;48.106;11.546;2023-05-19T07:24:42;19.70;69.10
27200;DHT22;14714;48.106;11.546;2023-05-19T07:27:09;19.50;69.90
27200;DHT22;14714;48.106;11.546;2023-05-19T07:29:36;19.10;72.10
27200;DHT22;14714;48.106;11.546;2023-05-19T07:32:03;18.70;72.70
27200;DHT22;14714;48.106;11.546;2023-05-19T07:34:30;18.10;76.30
27200;DHT22;14714;48.106;11.546;2023-05-19T07:36:57;17.50;77.80
27200;DHT22;14714;48.106;11.546;2023-05-19T07:39:23;17.10;80.40
27200;DHT22;14714;48.106;11.546;2023-05-19T07:41:53;17.00;81.70
27200;DHT22;14714;48.106;11.546;2023-05-19T07:44:21;16.60;82.30
27200;DHT22;14714;48.106;11.546;2023-05-19T07:46:48;16.50;84.30
27200;DHT22;14714;48.106;11.546;2023-05-19T07:49:14;17.10;85.60
27200;DHT22;14714;48.106;11.546;2023-05-19T07:51:41;18.30;80.20
27200;DHT22;14714;48.106;11.546;2023-05-19T07:54:08;19.00;77.70
27200;DHT22;14714;48.106;11.546;2023-05-19T07:56:35;19.70;74.90
27200;DHT22;14714;48.106;11.546;2023-05-19T07:59:02;20.70;71.70
27200;DHT22;14714;48.106;11.546;2023-05-19T08:01:30;21.50;67.30
27200;DHT22;14714;48.106;11.546;2023-05-19T08:03:57;21.40;64.70
27200;DHT22;14714;48.106;11.546;2023-05-19T08:06:24;20.80;68.40
27200;DHT22;14714;48.106;11.546;2023-05-19T08:08:51;20.10;67.80
27200;DHT22;14714;48.106;11.546;2023-05-19T08:11:19;19.30;71.20
27200;DHT22;14714;48.106;11.546;2023-05-19T08:13:47;18.50;74.40
27200;DHT22;14714;48.106;11.546;2023-05-19T08:16:17;17.70;76.70
27200;DHT22;14714;48.106;11.546;2023-05-19T08:18:44;17.00;78.90
27200;DHT22;14714;48.106;11.546;2023-05-19T08:21:11;16.30;81.30
27200;DHT22;14714;48.106;11.546;2023-05-19T08:23:37;15.70;84.50
27200;DHT22;14714;48.106;11.546;2023-05-19T08:26:04;15.20;87.40
27200;DHT22;14714;48.106;11.546;2023-05-19T08:28:31;14.90;89.40
27200;DHT22;14714;48.106;11.546;2023-05-19T08:30:58;14.60;90.80
27200;DHT22;14714;48.106;11.546;2023-05-19T08:33:25;14.40;91.00
27200;DHT22;14714;48.106;11.546;2023-05-19T08:35:52;14.20;91.40
27200;DHT22;14714;48.106;11.546;2023-05-19T08:38:20;14.00;92.10
27200;DHT22;14714;48.106;11.546;2023-05-19T08:40:47;13.80;93.00
27200;DHT22;14714;48.106;11.546;2023-05-19T08:43:14;13.60;93.60
27200;DHT22;14714;48.106;11.546;2023-05-19T08:45:43;13.40;94.30
27200;DHT22;14714;48.106;11.546;2023-05-19T08:48:15;13.20;94.90
27200;DHT22;14714;48.106;11.546;2023-05-19T08:50:50;13.10;95.90
27200;DHT22;14714;48.106;11.546;2023-05-19T08:53:25;13.10;96.60
27200;DHT22;14714;48.106;11.546;2023-05-19T08:56:07;13.00;97.50
27200;DHT22;14714;48.106;11.546;2023-05-19T08:58:41;13.00;97.60
27200;DHT22;14714;48.106;11.546;2023-05-19T09:01:13;13.00;98.30
27200;DHT22;14714;48.106;11.546;2023-05-19T09:03:46;13.00;98.60
27200;DHT22;14714;48.106;11.546;2023-05-19T09:06:15;13.00;99.00
27200;DHT22;14714;48.106;11.546;2023-05-19T09:08:43;13.10;99.40
27200;DHT22;14714;48.106;11.546;2023-05-19T09:11:10;13.10;99.60
27200;DHT22;14714;48.106;11.546;2023-05-19T09:13:37;13.20;99.20
27200;DHT22;14714;48.106;11.546;2023-05-19T09:16:04;13.30;99.20
27200;DHT22;14714;48.106;11.546;2023-05-19T09:18:32;13.40;99.00
27200;DHT22;14714;48.106;11.546;2023-05-19T09:21:00;13.50;98.80
27200;DHT22;14714;48.106;11.546;2023-05-19T09:23:32;13.50;99.00
27200;DHT22;14714;48.106;11.546;2023-05-19T09:26:03;13.50;99.80
27200;DHT22;14714;48.106;11.546;2023-05-19T09:28:35;13.60;99.60
27200;DHT22;14714;48.106;11.546;2023-05-19T09:31:04;13.70;99.20
27200;DHT22;14714;48.106;11.546;2023-05-19T09:33:38;13.80;99.10
27200;DHT22;14714;48.106;11.546;2023-05-19T09:36:08;13.90;98.50
27200;DHT22;14714;48.106;11.546;2023-05-19T09:38:37;13.90;99.00
27200;DHT22;14714;48.106;11.546;2023-05-19T09:41:06;13.90;98.80
27200;DHT22;14714;48.106;11.546;2023-05-19T09:43:33;14.00;98.90
27200;DHT22;14714;48.106;11.546;2023-05-19T09:46:08;14.10;98.50
27200;DHT22;14714;48.106;11.546;2023-05-19T09:48:39;14.40;98.60
27200;DHT22;14714;48.106;11.546;2023-05-19T09:51:07;14.60;98.40
27200;DHT22;14714;48.106;11.546;2023-05-19T09:53:35;14.70;97.40
27200;DHT22;14714;48.106;11.546;2023-05-19T09:56:02;14.70;96.40
27200;DHT22;14714;48.106;11.546;2023-05-19T09:58:33;14.70;96.80
27200;DHT22;14714;48.106;11.546;2023-05-19T10:01:03;14.60;97.50
27200;DHT22;14714;48.106;11.546;2023-05-19T10:03:32;14.50;97.50
27200;DHT22;14714;48.106;11.546;2023-05-19T10:06:06;14.60;97.70
27200;DHT22;14714;48.106;11.546;2023-05-19T10:08:35;14.50;98.10
27200;DHT22;14714;48.106;11.546;2023-05-19T10:11:04;14.50;97.80
27200;DHT22;14714;48.106;11.546;2023-05-19T10:13:34;14.40;97.40
27200;DHT22;14714;48.106;11.546;2023-05-19T10:16:04;14.30;97.90
27200;DHT22;14714;48.106;11.546;2023-05-19T10:18:32;14.10;97.80
27200;DHT22;14714;48.106;11.546;2023-05-19T10:20:59;14.00;99.20
27200;DHT22;14714;48.106;11.546;2023-05-19T10:23:27;14.10;99.10
27200;DHT22;14714;48.106;11.546;2023-05-19T10:25:57;14.10;99.10
27200;DHT22;14714;48.106;11.546;2023-05-19T10:28:32;14.10;99.00
27200;DHT22;14714;48.106;11.546;2023-05-19T10:31:01;14.10;98.90
27200;DHT22;14714;48.106;11.546;2023-05-19T10:36:43;14.10;98.90
27200;DHT22;14714;48.106;11.546;2023-05-19T10:39:16;14.20;99.20
27200;DHT22;14714;48.106;11.546;2023-05-19T10:41:59;14.20;99.40
27200;DHT22;14714;48.106;11.546;2023-05-19T10:47:25;14.00;99.00
27200;DHT22;14714;48.106;11.546;2023-05-19T10:49:52;13.90;99.50
27200;DHT22;14714;48.106;11.546;2023-05-19T10:52:20;13.80;99.70
27200;DHT22;14714;48.106;11.546;2023-05-19T10:54:48;13.70;99.90
27200;DHT22;14714;48.106;11.546;2023-05-19T10:57:16;13.60;99.90
27200;DHT22;14714;48.106;11.546;2023-05-19T10:59:43;13.60;99.90
27200;DHT22;14714;48.106;11.546;2023-05-19T11:02:41;13.70;99.90
27200;DHT22;14714;48.106;11.546;2023-05-19T11:05:09;13.70;99.90
27200;DHT22;14714;48.106;11.546;2023-05-19T11:07:37;13.60;99.90
27200;DHT22;14714;48.106;11.546;2023-05-19T11:10:06;13.60;99.90
27200;DHT22;14714;48.106;11.546;2023-05-19T11:12:44;13.60;99.90
27200;DHT22;14714;48.106;11.546;2023-05-19T11:15:13;13.70;99.90
27200;DHT22;14714;48.106;11.546;2023-05-19T11:17:41;13.80;99.90
27200;DHT22;14714;48.106;11.546;2023-05-19T11:20:29;13.80;99.90
27200;DHT22;14714;48.106;11.546;2023-05-19T11:23:07;13.90;99.90
27200;DHT22;14714;48.106;11.546;2023-05-19T11:25:45;13.90;99.90
27200;DHT22;14714;48.106;11.546;2023-05-19T11:28:17;14.10;99.90
27200;DHT22;14714;48.106;11.546;2023-05-19T11:30:46;14.20;99.90
27200;DHT22;14714;48.106;11.546;2023-05-19T11:33:16;14.20;99.90
27200;DHT22;14714;48.106;11.546;2023-05-19T11:35:46;14.40;99.90
27200;DHT22;14714;48.106;11.546;2023-05-19T11:38:17;14.60;99.50
27200;DHT22;14714;48.106;11.546;2023-05-19T11:40:45;14.60;99.70
27200;DHT22;14714;48.106;11.546;2023-05-19T11:43:13;14.70;99.40
27200;DHT22;14714;48.106;11.546;2023-05-19T11:45:39;14.80;99.60
27200;DHT22;14714;48.106;11.546;2023-05-19T11:48:10;14.90;98.70
27200;DHT22;14714;48.106;11.546;2023-05-19T11:50:40;14.90;98.80
27200;DHT22;14714;48.106;11.546;2023-05-19T11:53:07;14.80;99.20
27200;DHT22;14714;48.106;11.546;2023-05-19T11:55:41;14.70;98.90
27200;DHT22;14714;48.106;11.546;2023-05-19T11:58:12;14.60;99.10
27200;DHT22;14714;48.106;11.546;2023-05-19T12:00:40;14.40;99.40
27200;DHT22;14714;48.106;11.546;2023-05-19T12:03:07;14.30;99.30
27200;DHT22;14714;48.106;11.546;2023-05-19T12:05:44;14.10;99.70
27200;DHT22;14714;48.106;11.546;2023-05-19T12:08:15;14.00;99.90
27200;DHT22;14714;48.106;11.546;2023-05-19T12:10:43;13.90;99.90
27200;DHT22;14714;48.106;11.546;2023-05-19T12:13:11;13.80;99.90
27200;DHT22;14714;48.106;11.546;2023-05-19T12:15:38;13.70;99.90
27200;DHT22;14714;48.106;11.546;2023-05-19T12:18:05;13.70;99.90
27200;DHT22;14714;48.106;11.546;2023-05-19T12:20:32;13.80;99.90
27200;DHT22;14714;48.106;11.546;2023-05-19T12:23:02;13.70;99.90
27200;DHT22;14714;48.106;11.546;2023-05-19T12:25:29;13.70;99.90
27200;DHT22;14714;48.106;11.546;2023-05-19T12:27:59;13.80;99.90
27200;DHT22;14714;48.106;11.546;2023-05-19T12:30:27;13.80;99.90
27200;DHT22;14714;48.106;11.546;2023-05-19T12:32:55;13.80;99.90
27200;DHT22;14714;48.106;11.546;2023-05-19T12:35:26;13.90;99.90
27200;DHT22;14714;48.106;11.546;2023-05-19T12:37:54;13.90;99.90
27200;DHT22;14714;48.106;11.546;2023-05-19T12:40:21;14.00;99.90
27200;DHT22;14714;48.106;11.546;2023-05-19T12:42:48;14.00;99.90
27200;DHT22;14714;48.106;11.546;2023-05-19T12:45:19;14.00;99.90
27200;DHT22;14714;48.106;11.546;2023-05-19T12:47:47;13.90;99.90
27200;DHT22;14714;48.106;11.546;2023-05-19T12:50:14;13.90;99.90
27200;DHT22;14714;48.106;11.546;2023-05-19T12:52:50;14.00;99.90
27200;DHT22;14714;48.106;11.546;2023-05-19T12:55:18;14.10;99.90
27200;DHT22;14714;48.106;11.546;2023-05-19T12:57:51;14.10;99.90
27200;DHT22;14714;48.106;11.546;2023-05-19T13:00:24;14.20;99.90
27200;DHT22;14714;48.106;11.546;2023-05-19T13:05:21;14.60;99.90
27200;DHT22;14714;48.106;11.546;2023-05-19T13:08:05;14.80;99.90
27200;DHT22;14714;48.106;11.546;2023-05-19T13:10:33;14.90;99.90
27200;DHT22;14714;48.106;11.546;2023-05-19T13:13:01;15.10;99.90
27200;DHT22;14714;48.106;11.546;2023-05-19T13:15:30;15.20;99.90
27200;DHT22;14714;48.106;11.546;2023-05-19T13:18:01;15.30;99.60
27200;DHT22;14714;48.106;11.546;2023-05-19T13:20:29;15.40;99.50
27200;DHT22;14714;48.106;11.546;2023-05-19T13:22:56;15.50;99.30
27200;DHT22;14714;48.106;11.546;2023-05-19T13:25:23;15.60;99.20
27200;DHT22;14714;48.106;11.546;2023-05-19T13:27:50;15.60;98.90
27200;DHT22;14714;48.106;11.546;2023-05-19T13:30:18;15.70;99.00
27200;DHT22;14714;48.106;11.546;2023-05-19T13:32:45;15.80;98.60
27200;DHT22;14714;48.106;11.546;2023-05-19T13:35:13;15.90;98.50
27200;DHT22;14714;48.106;11.546;2023-05-19T13:37:43;16.00;97.70
27200;DHT22;14714;48.106;11.546;2023-05-19T13:40:10;16.10;96.90
27200;DHT22;14714;48.106;11.546;2023-05-19T13:42:37;16.20;97.00
27200;DHT22;14714;48.106;11.546;2023-05-19T13:45:05;16.30;96.40
27200;DHT22;14714;48.106;11.546;2023-05-19T13:47:32;16.40;97.20
27200;DHT22;14714;48.106;11.546;2023-05-19T13:49:58;16.40;96.20
27200;DHT22;14714;48.106;11.546;2023-05-19T13:52:25;16.30;96.70
27200;DHT22;14714;48.106;11.546;2023-05-19T13:54:56;16.30;96.10
27200;DHT22;14714;48.106;11.546;2023-05-19T13:57:23;16.20;97.30
27200;DHT22;14714;48.106;11.546;2023-05-19T13:59:53;16.20;96.70
27200;DHT22;14714;48.106;11.546;2023-05-19T14:02:29;16.10;97.00
27200;DHT22;14714;48.106;11.546;2023-05-19T14:04:57;16.00;96.80
27200;DHT22;14714;48.106;11.546;2023-05-19T14:07:23;15.80;97.00
27200;DHT22;14714;48.106;11.546;2023-05-19T14:09:51;15.70;97.60
27200;DHT22;14714;48.106;11.546;2023-05-19T14:12:18;15.60;98.50
27200;DHT22;14714;48.106;11.546;2023-05-19T14:14:51;15.50;97.90
27200;DHT22;14714;48.106;11.546;2023-05-19T14:17:17;15.40;98.50
27200;DHT22;14714;48.106;11.546;2023-05-19T14:19:44;15.40;98.30
27200;DHT22;14714;48.106;11.546;2023-05-19T14:22:11;15.40;98.40
27200;DHT22;14714;48.106;11.546;2023-05-19T14:24:38;15.40;98.70
27200;DHT22;14714;48.106;11.546;2023-05-19T14:27:07;15.40;98.70
27200;DHT22;14714;48.106;11.546;2023-05-19T14:29:33;15.40;98.90
27200;DHT22;14714;48.106;11.546;2023-05-19T14:32:00;15.40;99.20
27200;DHT22;14714;48.106;11.546;2023-05-19T14:34:28;15.40;99.10
27200;DHT22;14714;48.106;11.546;2023-05-19T14:36:55;15.40;98.90
27200;DHT22;14714;48.106;11.546;2023-05-19T14:39:22;15.50;99.40
27200;DHT22;14714;48.106;11.546;2023-05-19T14:41:49;15.60;99.40
27200;DHT22;14714;48.106;11.546;2023-05-19T14:44:17;15.70;99.20
27200;DHT22;14714;48.106;11.546;2023-05-19T14:46:44;15.80;99.30
27200;DHT22;14714;48.106;11.546;2023-05-19T14:49:11;15.80;98.40
27200;DHT22;14714;48.106;11.546;2023-05-19T14:51:37;15.80;98.30
27200;DHT22;14714;48.106;11.546;2023-05-19T14:54:04;15.70;98.80
27200;DHT22;14714;48.106;11.546;2023-05-19T14:56:31;15.70;99.10
27200;DHT22;14714;48.106;11.546;2023-05-19T14:58:58;15.70;99.40
27200;DHT22;14714;48.106;11.546;2023-05-19T15:01:25;15.80;99.50
27200;DHT22;14714;48.106;11.546;2023-05-19T15:03:52;15.80;99.30
27200;DHT22;14714;48.106;11.546;2023-05-19T15:06:19;15.80;98.80
27200;DHT22;14714;48.106;11.546;2023-05-19T15:08:46;15.70;98.60
27200;DHT22;14714;48.106;11.546;2023-05-19T15:11:12;15.60;99.00
27200;DHT22;14714;48.106;11.546;2023-05-19T15:13:39;15.50;99.60
27200;DHT22;14714;48.106;11.546;2023-05-19T15:16:06;15.50;99.90
27200;DHT22;14714;48.106;11.546;2023-05-19T15:18:43;15.50;99.90
27200;DHT22;14714;48.106;11.546;2023-05-19T15:21:11;15.50;99.90
27200;DHT22;14714;48.106;11.546;2023-05-19T15:23:38;15.50;99.90
27200;DHT22;14714;48.106;11.546;2023-05-19T15:26:04;15.50;99.90
27200;DHT22;14714;48.106;11.546;2023-05-19T15:28:32;15.60;99.90
27200;DHT22;14714;48.106;11.546;2023-05-19T15:30:59;15.70;99.90
27200;DHT22;14714;48.106;11.546;2023-05-19T15:33:26;15.80;99.90
27200;DHT22;14714;48.106;11.546;2023-05-19T15:35:53;15.80;99.90
27200;DHT22;14714;48.106;11.546;2023-05-19T15:38:20;15.90;99.90
27200;DHT22;14714;48.106;11.546;2023-05-19T15:40:47;16.00;99.90
27200;DHT22;14714;48.106;11.546;2023-05-19T15:43:14;16.10;99.90
27200;DHT22;14714;48.106;11.546;2023-05-19T15:45:41;16.10;99.70
27200;DHT22;14714;48.106;11.546;2023-05-19T15:48:07;16.20;99.80
27200;DHT22;14714;48.106;11.546;2023-05-19T15:50:34;16.30;99.60
27200;DHT22;14714;48.106;11.546;2023-05-19T15:53:02;16.50;99.90